createdAt,value
2018-12-14T00:14:58.863Z,21.30
2018-12-14T00:20:02.468Z,21.25
2018-12-14T00:25:06.672Z,21.16
2018-12-14T00:30:10.348Z,21.17
2018-12-14T00:35:14.053Z,21.17
2018-12-14T00:40:17.494Z,21.19
2018-12-14T00:45:21.066Z,21.21
2018-12-14T00:50:24.585Z,21.23
2018-12-14T00:55:28.174Z,21.19
2018-12-14T01:00:31.748Z,21.19
2018-12-14T01:05:35.383Z,21.16
2018-12-14T01:10:39.025Z,21.10
2018-12-14T01:15:42.685Z,21.05
2018-12-14T01:20:46.275Z,20.99
2018-12-14T01:25:50.212Z,20.92
2018-12-14T01:30:53.777Z,20.84
2018-12-14T01:35:57.346Z,20.94
2018-12-14T01:41:00.804Z,20.98
2018-12-14T01:46:04.546Z,21.02
2018-12-14T01:51:08.006Z,21.01
2018-12-14T01:56:11.485Z,20.94
2018-12-14T02:01:15.030Z,20.84
2018-12-14T02:06:18.650Z,20.77
2018-12-14T02:11:22.330Z,20.70
2018-12-14T02:16:25.923Z,20.65
2018-12-14T02:21:29.604Z,20.58
2018-12-14T02:26:33.136Z,20.56
2018-12-14T02:31:36.751Z,20.59
2018-12-14T02:36:40.333Z,20.65
2018-12-14T02:41:43.947Z,20.74
2018-12-14T02:46:47.539Z,20.75
2018-12-14T02:51:51.107Z,20.69
2018-12-14T02:56:54.627Z,20.63
2018-12-14T03:01:58.248Z,20.56
2018-12-14T03:07:01.912Z,20.50
2018-12-14T03:12:05.667Z,20.45
2018-12-14T03:17:09.425Z,20.40
2018-12-14T03:22:14.091Z,20.33
2018-12-14T03:27:17.693Z,20.31
2018-12-14T03:32:21.081Z,20.32
2018-12-14T03:37:24.679Z,20.35
2018-12-14T03:42:34.447Z,20.45
2018-12-14T03:47:33.743Z,20.55
2018-12-14T03:52:37.286Z,20.58
2018-12-14T03:57:40.818Z,20.54
2018-12-14T04:02:44.597Z,20.48
2018-12-14T04:07:48.128Z,20.41
2018-12-14T04:12:51.681Z,20.35
2018-12-14T04:17:55.386Z,20.29
2018-12-14T04:22:58.906Z,20.23
2018-12-14T04:28:02.638Z,20.18
2018-12-14T04:33:06.262Z,20.14
2018-12-14T04:38:09.634Z,20.19
2018-12-14T04:43:13.226Z,20.33
2018-12-14T04:48:18.403Z,20.42
2018-12-14T04:53:21.974Z,20.49
2018-12-14T04:58:25.474Z,20.43
2018-12-14T05:03:29.041Z,20.36
2018-12-14T05:08:32.467Z,20.30
2018-12-14T05:13:35.977Z,20.24
2018-12-14T05:18:39.511Z,20.19
2018-12-14T05:23:42.939Z,20.14
2018-12-14T05:28:46.430Z,20.10
2018-12-14T05:33:49.891Z,20.06
2018-12-14T05:38:53.379Z,20.07
2018-12-14T05:43:56.826Z,20.14
2018-12-14T05:49:00.287Z,20.28
2018-12-14T05:54:03.731Z,20.43
2018-12-14T05:59:07.095Z,20.46
2018-12-14T06:04:10.657Z,20.43
2018-12-14T06:09:14.864Z,20.35
2018-12-14T06:14:18.475Z,20.28
2018-12-14T06:19:21.992Z,20.22
2018-12-14T06:24:25.428Z,20.17
2018-12-14T06:29:28.830Z,20.11
2018-12-14T06:34:32.238Z,20.06
2018-12-14T06:39:35.650Z,20.02
2018-12-14T06:44:39.091Z,20.03
2018-12-14T06:49:42.586Z,20.08
2018-12-14T06:54:46.288Z,20.19
2018-12-14T06:59:49.929Z,20.29
2018-12-14T07:04:53.423Z,20.30
2018-12-14T07:09:56.901Z,20.25
2018-12-14T07:15:00.516Z,20.19
2018-12-14T07:20:05.168Z,20.14
2018-12-14T07:25:08.856Z,20.08
2018-12-14T07:30:12.374Z,20.01
2018-12-14T07:35:15.889Z,19.96
2018-12-14T07:40:19.365Z,19.93
2018-12-14T07:45:23.056Z,19.94
2018-12-14T07:50:26.375Z,19.84
2018-12-14T07:55:29.704Z,16.55
2018-12-14T08:00:33.042Z,15.84
2018-12-14T08:05:36.441Z,16.46
2018-12-14T08:10:39.922Z,18.60
2018-12-14T08:15:43.404Z,19.36
2018-12-14T08:20:53.411Z,19.79
2018-12-14T08:25:56.832Z,20.25
2018-12-14T08:31:00.224Z,20.38
2018-12-14T08:36:03.657Z,20.30
2018-12-14T08:41:07.011Z,20.28
2018-12-14T08:46:10.468Z,20.21
2018-12-14T08:51:13.855Z,20.15
2018-12-14T08:56:17.219Z,20.07
2018-12-14T09:01:20.710Z,19.97
2018-12-14T09:06:24.062Z,19.92
2018-12-14T09:11:27.525Z,19.88
2018-12-14T09:16:31.252Z,19.80
2018-12-14T09:21:34.631Z,19.57
2018-12-14T09:26:38.042Z,19.59
2018-12-14T09:31:42.002Z,19.72
2018-12-14T09:36:45.325Z,19.71
2018-12-14T09:41:48.658Z,19.80
2018-12-14T09:46:52.055Z,19.90
2018-12-14T09:51:55.444Z,19.80
2018-12-14T09:56:58.869Z,19.92
2018-12-14T10:02:02.410Z,20.14
2018-12-14T10:07:05.890Z,20.22
2018-12-14T10:12:09.417Z,20.22
2018-12-14T10:17:12.837Z,20.23
2018-12-14T10:22:16.183Z,20.16
2018-12-14T10:27:19.534Z,20.10
2018-12-14T10:32:22.949Z,20.03
2018-12-14T10:37:26.266Z,19.98
2018-12-14T10:42:29.586Z,19.93
2018-12-14T10:47:33.046Z,19.89
2018-12-14T10:52:36.386Z,19.87
2018-12-14T10:57:40.025Z,19.88
2018-12-14T11:02:43.465Z,19.97
2018-12-14T11:07:46.813Z,20.11
2018-12-14T11:12:50.267Z,20.24
2018-12-14T11:17:53.650Z,20.29
2018-12-14T11:22:57.103Z,20.33
2018-12-14T11:28:00.491Z,20.35
2018-12-14T11:33:03.903Z,20.25
2018-12-14T11:38:07.268Z,20.15
2018-12-14T11:43:10.619Z,20.12
2018-12-14T11:48:13.975Z,20.08
2018-12-14T11:53:20.244Z,20.09
2018-12-14T11:58:23.601Z,19.99
2018-12-14T12:03:26.929Z,19.91
2018-12-14T12:08:30.405Z,19.84
2018-12-14T12:13:33.725Z,19.82
2018-12-14T12:18:37.165Z,19.79
2018-12-14T12:23:40.501Z,19.77
2018-12-14T12:28:43.861Z,19.84
2018-12-14T12:33:47.305Z,19.96
2018-12-14T12:38:50.724Z,20.15
2018-12-14T12:43:54.059Z,20.19
2018-12-14T12:48:57.584Z,20.18
2018-12-14T12:54:01.014Z,20.12
2018-12-14T12:59:04.570Z,20.17
2018-12-14T13:04:08.661Z,20.13
2018-12-14T13:09:12.796Z,20.12
2018-12-14T13:14:16.165Z,20.10
2018-12-14T13:19:19.488Z,20.12
2018-12-14T13:24:23.135Z,20.13
2018-12-14T13:29:26.478Z,20.16
2018-12-14T13:34:29.834Z,20.21
2018-12-14T13:39:33.167Z,20.25
2018-12-14T13:44:36.788Z,20.29
2018-12-14T13:49:40.125Z,20.32
2018-12-14T13:54:43.481Z,20.33
2018-12-14T13:59:46.812Z,20.41
2018-12-14T14:04:50.241Z,20.53
2018-12-14T14:09:53.570Z,20.58
2018-12-14T14:14:56.918Z,20.61
2018-12-14T14:20:00.449Z,20.63
2018-12-14T14:25:03.925Z,20.66
2018-12-14T14:30:07.933Z,20.68
2018-12-14T14:35:11.409Z,20.69
2018-12-14T14:40:14.883Z,20.74
2018-12-14T14:45:18.298Z,20.74
2018-12-14T14:50:21.704Z,20.82
2018-12-14T14:55:25.118Z,20.82
2018-12-14T15:00:30.631Z,20.80
2018-12-14T15:05:34.097Z,20.78
2018-12-14T15:10:37.737Z,20.80
2018-12-14T15:15:41.076Z,20.80
2018-12-14T15:20:44.430Z,20.78
2018-12-14T15:25:47.927Z,20.81
2018-12-14T15:30:51.285Z,20.78
2018-12-14T15:35:54.623Z,20.80
2018-12-14T15:40:58.141Z,20.81
2018-12-14T15:46:01.494Z,20.84
2018-12-14T15:51:04.921Z,20.89
2018-12-14T15:56:08.267Z,20.94
2018-12-14T16:01:11.686Z,20.95
2018-12-14T16:06:15.041Z,20.95
2018-12-14T16:11:18.424Z,20.96
2018-12-14T16:16:21.837Z,20.97
2018-12-14T16:21:25.463Z,20.99
2018-12-14T16:26:28.934Z,20.96
2018-12-14T16:31:32.282Z,20.95
2018-12-14T16:36:35.727Z,20.97
2018-12-14T16:41:39.174Z,20.97
2018-12-14T16:46:42.619Z,20.97
2018-12-14T16:51:46.167Z,20.98
2018-12-14T16:56:49.611Z,21.01
2018-12-14T17:01:53.035Z,21.06
2018-12-14T17:06:56.507Z,21.03
2018-12-14T17:12:00.126Z,21.05
2018-12-14T17:17:03.450Z,21.17
2018-12-14T17:22:06.799Z,21.15
2018-12-14T17:27:10.401Z,21.22
2018-12-14T17:32:15.033Z,21.16
2018-12-14T17:37:18.405Z,21.08
2018-12-14T17:42:22.002Z,21.09
2018-12-14T17:47:28.413Z,21.10
2018-12-14T17:52:31.770Z,21.12
2018-12-14T17:57:35.123Z,21.09
2018-12-14T18:02:38.437Z,21.09
2018-12-14T18:07:42.491Z,21.11
2018-12-14T18:12:46.017Z,21.11
2018-12-14T18:17:49.552Z,21.11
2018-12-14T18:22:53.449Z,21.13
2018-12-14T18:27:59.071Z,21.16
2018-12-14T18:33:02.766Z,21.20
2018-12-14T18:38:06.106Z,21.24
2018-12-14T18:43:09.412Z,21.20
2018-12-14T18:48:12.750Z,21.22
2018-12-14T18:53:16.138Z,21.19
2018-12-14T18:58:21.085Z,21.17
2018-12-14T19:03:24.383Z,21.16
2018-12-14T19:08:30.754Z,21.14
2018-12-14T19:13:36.547Z,21.13
2018-12-14T19:18:40.805Z,21.13
2018-12-14T19:23:44.471Z,21.12
2018-12-14T19:28:52.555Z,21.12
2018-12-14T19:33:57.197Z,21.11
2018-12-14T19:39:02.069Z,21.13
2018-12-14T19:44:07.250Z,21.10
2018-12-14T19:49:11.317Z,21.10
2018-12-14T19:54:14.714Z,21.21
2018-12-14T19:59:18.123Z,21.20
2018-12-14T20:04:21.671Z,21.15
2018-12-14T20:09:25.072Z,21.17
2018-12-14T20:14:28.511Z,21.22
2018-12-14T20:19:32.023Z,21.29
2018-12-14T20:24:35.385Z,21.30
2018-12-14T20:29:38.727Z,21.25
2018-12-14T20:34:42.070Z,21.30
2018-12-14T20:39:45.634Z,21.27
2018-12-14T20:44:49.106Z,21.25
2018-12-14T20:49:52.441Z,21.24
2018-12-14T20:54:55.882Z,21.25
2018-12-14T20:59:59.265Z,21.21
2018-12-14T21:05:02.762Z,21.28
2018-12-14T21:10:07.659Z,21.23
2018-12-14T21:15:11.130Z,21.23
2018-12-14T21:20:14.602Z,21.25
2018-12-14T21:25:18.110Z,21.25
2018-12-14T21:30:21.501Z,21.26
2018-12-14T21:35:25.060Z,21.22
2018-12-14T21:40:28.470Z,21.24
2018-12-14T21:45:31.888Z,21.21
2018-12-14T21:50:35.371Z,21.24
2018-12-14T21:55:38.694Z,21.22
2018-12-14T22:00:42.171Z,21.23
2018-12-14T22:05:45.527Z,21.29
2018-12-14T22:10:48.958Z,21.30
2018-12-14T22:15:52.344Z,21.35
2018-12-14T22:20:55.913Z,21.39
2018-12-14T22:25:59.470Z,21.36
2018-12-14T22:31:02.905Z,21.37
2018-12-14T22:36:06.234Z,21.34
2018-12-14T22:41:09.603Z,21.35
2018-12-14T22:46:19.290Z,21.34
2018-12-14T22:51:22.647Z,21.31
2018-12-14T22:56:26.056Z,21.33
2018-12-14T23:01:29.566Z,21.31
2018-12-14T23:06:33.284Z,21.30
2018-12-14T23:11:36.847Z,21.33
2018-12-14T23:16:40.357Z,21.31
2018-12-14T23:21:43.950Z,21.29
2018-12-14T23:26:47.381Z,21.30
2018-12-14T23:31:50.854Z,21.32
2018-12-14T23:36:54.553Z,21.29
2018-12-14T23:41:58.112Z,21.28
2018-12-14T23:47:01.625Z,21.27
2018-12-14T23:52:05.161Z,21.26
2018-12-14T23:57:12.202Z,21.27
